createdAt,value
2019-05-26T00:02:40.079Z,100973.16
2019-05-26T00:05:56.869Z,100965.78
2019-05-26T00:09:23.589Z,100961.06
2019-05-26T00:12:40.323Z,100954.38
2019-05-26T00:15:57.147Z,100962.97
2019-05-26T00:19:13.780Z,100958.81
2019-05-26T00:22:21.236Z,100957.45
2019-05-26T00:25:37.788Z,100950.00
2019-05-26T00:29:00.510Z,100946.29
2019-05-26T00:32:17.198Z,100943.27
2019-05-26T00:35:33.948Z,100932.25
2019-05-26T00:38:50.568Z,100930.20
2019-05-26T00:41:58.074Z,100938.06
2019-05-26T00:45:14.659Z,100919.24
2019-05-26T00:48:31.427Z,100920.25
2019-05-26T00:51:48.059Z,100914.80
2019-05-26T00:55:05.210Z,100911.02
2019-05-26T00:58:12.786Z,100906.52
2019-05-26T01:01:20.581Z,100900.17
2019-05-26T01:04:26.840Z,100896.91
2019-05-26T01:07:34.221Z,100896.98
2019-05-26T01:10:41.512Z,100889.36
2019-05-26T01:13:48.892Z,100881.66
2019-05-26T01:16:56.378Z,100879.48
2019-05-26T01:20:03.727Z,100875.62
2019-05-26T01:23:10.998Z,100872.09
2019-05-26T01:26:18.405Z,100866.59
2019-05-26T01:29:25.589Z,100868.18
2019-05-26T01:32:32.904Z,100862.73
2019-05-26T01:35:49.808Z,100864.33
2019-05-26T01:39:14.816Z,100855.36
2019-05-26T01:42:31.560Z,100858.38
2019-05-26T01:45:48.396Z,100843.44
2019-05-26T01:49:05.067Z,100851.13
2019-05-26T01:52:21.784Z,100845.69
2019-05-26T01:55:38.565Z,100842.22
2019-05-26T01:58:44.146Z,100845.80
2019-05-26T02:02:00.913Z,100841.56
2019-05-26T02:05:17.689Z,100834.52
2019-05-26T02:08:39.359Z,100834.98
2019-05-26T02:11:52.577Z,100836.33
2019-05-26T02:15:09.706Z,100837.16
2019-05-26T02:18:15.943Z,100825.87
2019-05-26T02:21:23.505Z,100822.54
2019-05-26T02:24:30.917Z,100826.77
2019-05-26T02:27:47.691Z,100818.86
2019-05-26T02:31:04.595Z,100817.66
2019-05-26T02:34:21.217Z,100812.52
2019-05-26T02:37:28.777Z,100813.56
2019-05-26T02:40:36.312Z,100805.49
2019-05-26T02:43:43.720Z,100798.55
2019-05-26T02:46:51.004Z,100794.57
2019-05-26T02:49:58.282Z,100791.55
2019-05-26T02:53:05.727Z,100790.23
2019-05-26T02:56:13.126Z,100786.39
2019-05-26T02:59:20.505Z,100788.95
2019-05-26T03:02:37.163Z,100785.41
2019-05-26T03:05:54.845Z,100786.70
2019-05-26T03:09:20.971Z,100789.71
2019-05-26T03:12:12.855Z,100790.61
2019-05-26T03:15:19.802Z,100788.54
2019-05-26T03:18:30.361Z,100784.77
2019-05-26T03:21:38.029Z,100780.02
2019-05-26T03:24:54.760Z,100778.55
2019-05-26T03:28:17.451Z,100777.51
2019-05-26T03:31:34.303Z,100775.77
2019-05-26T03:34:41.069Z,100776.68
2019-05-26T03:37:46.636Z,100770.79
2019-05-26T03:40:53.938Z,100770.27
2019-05-26T03:44:01.230Z,100756.53
2019-05-26T03:47:08.527Z,100746.20
2019-05-26T03:50:35.455Z,100743.84
2019-05-26T03:53:58.064Z,100740.53
2019-05-26T03:57:14.787Z,100732.22
2019-05-26T04:00:31.470Z,100724.45
2019-05-26T04:03:38.693Z,100720.30
2019-05-26T04:06:45.901Z,100716.30
2019-05-26T04:10:04.801Z,100718.30
2019-05-26T04:13:11.575Z,100712.05
2019-05-26T04:16:28.144Z,100707.14
2019-05-26T04:19:44.956Z,100696.88
2019-05-26T04:23:01.954Z,100699.33
2019-05-26T04:26:08.171Z,100701.33
2019-05-26T04:29:15.464Z,100695.97
2019-05-26T04:32:22.759Z,100703.93
2019-05-26T04:35:30.195Z,100696.08
2019-05-26T04:38:37.510Z,100695.48
2019-05-26T04:41:43.736Z,100694.10
2019-05-26T04:44:51.352Z,100695.95
2019-05-26T04:47:58.135Z,100687.58
2019-05-26T04:51:05.521Z,100696.05
2019-05-26T04:54:12.974Z,100694.03
2019-05-26T04:57:20.353Z,100692.43
2019-05-26T05:00:27.749Z,100692.52
2019-05-26T05:03:34.098Z,100692.69
2019-05-26T05:06:41.591Z,100683.38
2019-05-26T05:09:48.851Z,100679.31
2019-05-26T05:12:56.161Z,100674.22
2019-05-26T05:16:03.496Z,100670.98
2019-05-26T05:19:10.858Z,100662.94
2019-05-26T05:22:18.204Z,100664.84
2019-05-26T05:25:23.937Z,100665.80
2019-05-26T05:28:31.211Z,100656.41
2019-05-26T05:31:54.078Z,100650.70
2019-05-26T05:35:11.026Z,100646.52
2019-05-26T05:38:27.553Z,100642.17
2019-05-26T05:41:44.151Z,100640.66
2019-05-26T05:45:01.019Z,100636.28
2019-05-26T05:48:17.794Z,100630.84
2019-05-26T05:51:34.454Z,100629.25
2019-05-26T05:54:51.168Z,100623.66
2019-05-26T05:58:07.989Z,100627.94
2019-05-26T06:01:24.714Z,100622.83
2019-05-26T06:04:41.489Z,100624.87
2019-05-26T06:07:58.018Z,100620.31
2019-05-26T06:11:16.969Z,100616.48
2019-05-26T06:14:33.217Z,100618.33
2019-05-26T06:17:50.004Z,100617.53
2019-05-26T06:21:06.701Z,100612.94
2019-05-26T06:24:23.447Z,100610.94
2019-05-26T06:27:40.387Z,100596.95
2019-05-26T06:30:46.595Z,100591.80
2019-05-26T06:33:53.773Z,100593.27
2019-05-26T06:37:01.373Z,100584.92
2019-05-26T06:40:09.759Z,100582.44
2019-05-26T06:43:17.245Z,100586.41
2019-05-26T06:46:24.552Z,100585.66
2019-05-26T06:49:31.901Z,100592.22
2019-05-26T06:52:39.269Z,100581.44
2019-05-26T06:55:56.147Z,100577.30
2019-05-26T06:59:03.129Z,100582.65
2019-05-26T07:02:25.956Z,100570.43
2019-05-26T07:05:33.174Z,100577.14
2019-05-26T07:08:50.045Z,100583.30
2019-05-26T07:12:07.912Z,100580.63
2019-05-26T07:15:24.594Z,100575.06
2019-05-26T07:18:41.378Z,100569.17
2019-05-26T07:21:57.946Z,100564.91
2019-05-26T07:25:05.688Z,100575.52
2019-05-26T07:28:13.088Z,100568.20
2019-05-26T07:31:20.466Z,100574.45
2019-05-26T07:34:27.856Z,100561.84
2019-05-26T07:37:35.237Z,100567.89
2019-05-26T07:40:42.696Z,100555.70
2019-05-26T07:43:49.897Z,100558.01
2019-05-26T07:46:57.110Z,100560.39
2019-05-26T07:50:05.081Z,100559.36
2019-05-26T07:53:10.862Z,100552.27
2019-05-26T07:56:18.161Z,100553.81
2019-05-26T07:59:25.595Z,100547.15
2019-05-26T08:02:33.026Z,100544.72
2019-05-26T08:05:56.179Z,100540.14
2019-05-26T08:09:06.335Z,100533.52
2019-05-26T08:12:28.218Z,100532.80
2019-05-26T08:15:42.042Z,100536.83
2019-05-26T08:18:58.501Z,100533.85
2019-05-26T08:22:15.392Z,100532.73
2019-05-26T08:25:32.000Z,100531.48
2019-05-26T08:28:39.198Z,100532.42
2019-05-26T08:32:01.923Z,100522.65
2019-05-26T08:35:08.243Z,100521.72
2019-05-26T08:38:15.600Z,100530.00
2019-05-26T08:41:22.949Z,100518.98
2019-05-26T08:44:30.331Z,100511.40
2019-05-26T08:47:37.715Z,100506.98
2019-05-26T08:50:45.171Z,100498.09
2019-05-26T08:54:02.030Z,100497.30
2019-05-26T08:57:18.564Z,100496.30
2019-05-26T09:00:35.433Z,100492.89
2019-05-26T09:03:52.273Z,100495.48
2019-05-26T09:07:08.850Z,100489.62
2019-05-26T09:10:16.431Z,100491.71
2019-05-26T09:13:32.970Z,100482.81
2019-05-26T09:16:52.660Z,100483.91
2019-05-26T09:19:58.322Z,100487.16
2019-05-26T09:23:03.971Z,100481.99
2019-05-26T09:26:20.807Z,100477.00
2019-05-26T09:29:37.462Z,100475.41
2019-05-26T09:32:54.486Z,100479.99
2019-05-26T09:36:17.001Z,100482.94
2019-05-26T09:39:36.658Z,100480.01
2019-05-26T09:43:14.794Z,100479.19
2019-05-26T09:46:26.176Z,100481.88
2019-05-26T09:49:32.312Z,100492.34
2019-05-26T09:52:38.626Z,100490.94
2019-05-26T09:55:45.896Z,100493.06
2019-05-26T09:58:53.364Z,100500.09
2019-05-26T10:02:10.180Z,100494.33
2019-05-26T10:05:31.066Z,100492.57
2019-05-26T10:08:47.675Z,100487.40
2019-05-26T10:12:04.506Z,100485.28
2019-05-26T10:15:21.363Z,100490.81
2019-05-26T10:18:37.871Z,100486.81
2019-05-26T10:21:54.713Z,100480.82
2019-05-26T10:25:17.516Z,100476.47
2019-05-26T10:28:34.184Z,100481.70
2019-05-26T10:31:50.884Z,100480.11
2019-05-26T10:34:58.098Z,100491.70
2019-05-26T10:38:14.872Z,100484.57
2019-05-26T10:41:20.544Z,100485.09
2019-05-26T10:44:37.296Z,100486.39
2019-05-26T10:47:54.160Z,100482.98
2019-05-26T10:51:10.849Z,100477.70
2019-05-26T10:54:27.609Z,100479.70
2019-05-26T10:57:44.475Z,100475.91
2019-05-26T11:01:01.204Z,100481.11
2019-05-26T11:04:17.984Z,100472.75
2019-05-26T11:07:34.607Z,100466.99
2019-05-26T11:10:51.933Z,100455.13
2019-05-26T11:14:02.953Z,100470.16
2019-05-26T11:17:06.870Z,100470.98
2019-05-26T11:20:15.544Z,100464.41
2019-05-26T11:23:21.225Z,100456.53
2019-05-26T11:26:28.596Z,100451.25
2019-05-26T11:29:34.835Z,100461.13
2019-05-26T11:32:51.441Z,100452.95
2019-05-26T11:36:08.280Z,100449.77
2019-05-26T11:39:24.886Z,100451.31
2019-05-26T11:42:44.759Z,100438.38
2019-05-26T11:46:02.575Z,100440.14
2019-05-26T11:49:09.823Z,100441.19
2019-05-26T11:52:32.707Z,100441.13
2019-05-26T11:55:51.792Z,100426.20
2019-05-26T11:58:57.447Z,100428.91
2019-05-26T12:02:04.794Z,100418.31
2019-05-26T12:05:21.455Z,100415.42
2019-05-26T12:08:44.295Z,100408.12
2019-05-26T12:12:01.045Z,100406.28
2019-05-26T12:15:23.871Z,100410.16
2019-05-26T12:18:40.962Z,100405.61
2019-05-26T12:21:48.366Z,100402.16
2019-05-26T12:24:55.657Z,100406.55
2019-05-26T12:28:03.054Z,100399.61
2019-05-26T12:31:10.420Z,100395.73
2019-05-26T12:34:17.859Z,100390.91
2019-05-26T12:37:25.309Z,100389.17
2019-05-26T12:40:42.221Z,100383.55
2019-05-26T12:43:59.246Z,100385.66
2019-05-26T12:47:06.717Z,100385.16
2019-05-26T12:50:14.677Z,100387.16
2019-05-26T12:53:22.059Z,100380.70
2019-05-26T12:56:38.865Z,100373.42
2019-05-26T12:59:55.743Z,100376.95
2019-05-26T13:03:20.902Z,100377.31
2019-05-26T13:06:46.242Z,100373.30
2019-05-26T13:10:02.980Z,100369.66
2019-05-26T13:13:19.871Z,100361.30
2019-05-26T13:16:39.013Z,100357.44
2019-05-26T13:19:46.544Z,100353.20
2019-05-26T13:23:03.081Z,100355.20
2019-05-26T13:26:19.771Z,100350.50
2019-05-26T13:29:36.497Z,100357.58
2019-05-26T13:32:53.325Z,100349.09
2019-05-26T13:36:10.047Z,100342.34
2019-05-26T13:39:26.879Z,100342.69
2019-05-26T13:42:49.603Z,100340.57
2019-05-26T13:46:15.288Z,100337.00
2019-05-26T13:49:38.130Z,100333.97
2019-05-26T13:52:54.821Z,100333.97
2019-05-26T13:56:11.639Z,100323.44
2019-05-26T13:59:28.451Z,100329.67
2019-05-26T14:02:45.109Z,100323.09
2019-05-26T14:06:05.009Z,100322.48
2019-05-26T14:09:21.665Z,100312.81
2019-05-26T14:12:38.510Z,100316.44
2019-05-26T14:15:56.015Z,100307.02
2019-05-26T14:19:04.174Z,100309.87
2019-05-26T14:22:20.787Z,100308.66
2019-05-26T14:25:43.516Z,100303.82
2019-05-26T14:29:00.312Z,100303.69
2019-05-26T14:32:17.077Z,100301.48
2019-05-26T14:35:33.907Z,100301.58
2019-05-26T14:38:43.189Z,100303.82
2019-05-26T14:41:47.526Z,100303.69
2019-05-26T14:44:55.733Z,100305.84
2019-05-26T14:48:03.440Z,100305.84
2019-05-26T14:51:11.411Z,100300.05
2019-05-26T14:54:28.331Z,100294.86
2019-05-26T14:57:51.098Z,100296.29
2019-05-26T15:01:13.982Z,100293.56
2019-05-26T15:04:21.125Z,100281.59
2019-05-26T15:07:50.744Z,100296.52
2019-05-26T15:10:56.702Z,100296.52
2019-05-26T15:14:04.628Z,100272.05
2019-05-26T15:17:10.994Z,100272.05
2019-05-26T15:20:34.403Z,100281.08
2019-05-26T15:24:06.971Z,100281.08
2019-05-26T15:27:15.276Z,100280.39
2019-05-26T15:30:22.649Z,100284.15
2019-05-26T15:33:43.691Z,100279.91
2019-05-26T15:36:57.713Z,100279.91
2019-05-26T15:40:12.007Z,100271.75
2019-05-26T15:43:19.468Z,100261.63
2019-05-26T15:46:30.239Z,100263.62
2019-05-26T15:49:37.798Z,100254.54
2019-05-26T15:52:45.363Z,100251.25
2019-05-26T15:56:10.897Z,100242.98
2019-05-26T15:59:18.278Z,100238.62
2019-05-26T16:02:24.541Z,100230.97
2019-05-26T16:05:31.926Z,100220.45
2019-05-26T16:08:39.124Z,100217.11
2019-05-26T16:11:46.635Z,100213.78
2019-05-26T16:14:52.859Z,100208.88
2019-05-26T16:18:00.358Z,100211.95
2019-05-26T16:21:19.139Z,100196.57
2019-05-26T16:24:28.969Z,100190.75
2019-05-26T16:27:45.784Z,100190.61
2019-05-26T16:31:12.318Z,100174.77
2019-05-26T16:34:18.615Z,100175.72
2019-05-26T16:37:37.072Z,100170.10
2019-05-26T16:40:53.877Z,100167.95
2019-05-26T16:44:16.545Z,100165.43
2019-05-26T16:47:33.450Z,100167.75
2019-05-26T16:50:53.033Z,100163.72
2019-05-26T16:54:00.479Z,100169.05
2019-05-26T16:57:17.161Z,100173.73
2019-05-26T17:00:36.320Z,100181.83
2019-05-26T17:03:53.185Z,100172.53
2019-05-26T17:07:09.956Z,100185.14
2019-05-26T17:10:27.068Z,100177.77
2019-05-26T17:13:34.566Z,100183.26
2019-05-26T17:16:42.313Z,100190.36
2019-05-26T17:19:52.730Z,100189.78
2019-05-26T17:23:10.417Z,100181.62
2019-05-26T17:26:29.090Z,100191.00
2019-05-26T17:29:54.220Z,100190.82
2019-05-26T17:33:13.551Z,100196.48
2019-05-26T17:36:20.090Z,100208.44
2019-05-26T17:39:27.426Z,100211.66
2019-05-26T17:42:34.874Z,100217.94
2019-05-26T17:45:40.593Z,100222.79
2019-05-26T17:48:47.458Z,100211.61
2019-05-26T17:51:54.896Z,100223.42
2019-05-26T17:55:02.249Z,100228.52
2019-05-26T17:58:28.044Z,100222.52
2019-05-26T18:01:47.859Z,100225.04
2019-05-26T18:05:07.851Z,100217.75
2019-05-26T18:08:15.183Z,100226.87
2019-05-26T18:11:22.619Z,100226.19
2019-05-26T18:14:30.239Z,100216.20
2019-05-26T18:18:04.649Z,100217.17
2019-05-26T18:21:12.029Z,100217.52
2019-05-26T18:24:55.893Z,100222.58
2019-05-26T18:28:35.915Z,100212.86
2019-05-26T18:32:07.100Z,100225.00
2019-05-26T18:35:31.545Z,100223.92
2019-05-26T18:38:56.873Z,100217.09
2019-05-26T18:42:03.569Z,100218.08
2019-05-26T18:45:11.150Z,100218.08
2019-05-26T18:48:19.196Z,100214.80
2019-05-26T18:51:26.736Z,100214.80
2019-05-26T18:54:34.121Z,100214.23
2019-05-26T18:57:41.336Z,100214.23
2019-05-26T19:00:48.871Z,100218.36
2019-05-26T19:04:14.132Z,100217.06
2019-05-26T19:07:33.066Z,100209.92
2019-05-26T19:10:58.210Z,100203.67
2019-05-26T19:14:17.423Z,100201.80
2019-05-26T19:17:24.761Z,100202.50
2019-05-26T19:20:43.171Z,100194.84
2019-05-26T19:24:09.596Z,100201.23
2019-05-26T19:27:17.064Z,100197.36
2019-05-26T19:30:45.517Z,100200.88
2019-05-26T19:34:02.650Z,100195.59
2019-05-26T19:37:28.398Z,100196.06
2019-05-26T19:40:34.637Z,100199.27
2019-05-26T19:43:45.649Z,100197.02
2019-05-26T19:46:53.385Z,100190.91
2019-05-26T19:50:18.600Z,100189.00
2019-05-26T19:53:47.411Z,100180.41
2019-05-26T19:58:01.439Z,100178.77
2019-05-26T20:01:50.887Z,100186.20
2019-05-26T20:05:01.507Z,100181.45
2019-05-26T20:08:21.879Z,100184.98
2019-05-26T20:11:28.134Z,100175.25
2019-05-26T20:14:34.462Z,100163.13
2019-05-26T20:17:59.208Z,100164.42
2019-05-26T20:21:24.275Z,100157.72
2019-05-26T20:24:31.600Z,100155.00
2019-05-26T20:27:38.924Z,100161.34
2019-05-26T20:30:45.301Z,100152.87
2019-05-26T20:33:52.605Z,100150.28
2019-05-26T20:36:59.804Z,100151.95
2019-05-26T20:40:06.405Z,100147.36
2019-05-26T20:43:25.281Z,100144.06
2019-05-26T20:46:50.615Z,100133.48
2019-05-26T20:50:10.609Z,100134.30
2019-05-26T20:53:17.891Z,100142.88
2019-05-26T20:56:25.107Z,100141.70
2019-05-26T20:59:32.473Z,100137.95
2019-05-26T21:02:39.817Z,100142.42
2019-05-26T21:05:47.148Z,100140.19
2019-05-26T21:08:54.497Z,100132.19
2019-05-26T21:12:01.796Z,100138.78
2019-05-26T21:15:26.751Z,100138.19
2019-05-26T21:18:32.505Z,100137.70
2019-05-26T21:21:38.654Z,100139.71
2019-05-26T21:24:46.295Z,100142.77
2019-05-26T21:27:52.492Z,100131.13
2019-05-26T21:31:11.510Z,100136.41
2019-05-26T21:34:18.792Z,100135.72
2019-05-26T21:37:38.000Z,100132.07
2019-05-26T21:40:43.718Z,100137.14
2019-05-26T21:44:14.962Z,100128.42
2019-05-26T21:47:29.653Z,100134.41
2019-05-26T21:50:48.525Z,100138.30
2019-05-26T21:53:53.027Z,100134.30
2019-05-26T21:57:25.569Z,100147.58
2019-05-26T22:05:02.869Z,100140.66
2019-05-26T22:13:30.737Z,100143.12
2019-05-26T22:17:00.612Z,100139.71
2019-05-26T22:20:28.202Z,100145.70
2019-05-26T22:29:08.225Z,100131.02
2019-05-26T22:32:25.202Z,100130.67
2019-05-26T22:35:49.030Z,100118.55
2019-05-26T22:38:56.434Z,100131.72
2019-05-26T22:42:14.596Z,100125.50
2019-05-26T22:45:39.781Z,100123.36
2019-05-26T22:48:47.150Z,100134.63
2019-05-26T22:52:05.771Z,100117.27
2019-05-26T22:55:30.041Z,100111.25
2019-05-26T22:58:36.193Z,100112.31
2019-05-26T23:01:43.510Z,100112.43
2019-05-26T23:04:50.756Z,100095.97
2019-05-26T23:07:58.154Z,100106.30
2019-05-26T23:11:05.426Z,100099.48
2019-05-26T23:14:13.022Z,100098.31
2019-05-26T23:17:20.381Z,100107.23
2019-05-26T23:20:27.720Z,100103.60
2019-05-26T23:23:46.894Z,100098.08
2019-05-26T23:26:54.089Z,100096.89
2019-05-26T23:30:19.606Z,100091.59
2019-05-26T23:33:25.762Z,100088.67
2019-05-26T23:36:31.369Z,100097.72
2019-05-26T23:39:38.653Z,100090.17
2019-05-26T23:42:46.107Z,100089.00
2019-05-26T23:45:53.390Z,100090.30
2019-05-26T23:49:00.682Z,100088.17
2019-05-26T23:52:08.292Z,100084.06
2019-05-26T23:55:27.612Z,100069.96
2019-05-26T23:58:46.247Z,100058.45
